createdAt,value
2023-04-18T00:00:13.919Z,100889.80
2023-04-18T00:03:09.881Z,100890.40
2023-04-18T00:05:44.143Z,100893.20
2023-04-18T00:08:17.435Z,100889.60
2023-04-18T00:10:50.549Z,100893.20
2023-04-18T00:13:23.463Z,100891.80
2023-04-18T00:15:56.998Z,100894.60
2023-04-18T00:18:29.981Z,100889.80
2023-04-18T00:21:03.331Z,100888.80
2023-04-18T00:23:36.354Z,100887.00
2023-04-18T00:26:09.457Z,100890.40
2023-04-18T00:28:42.710Z,100891.00
2023-04-18T00:31:16.636Z,100893.60
2023-04-18T00:33:50.021Z,100889.00
2023-04-18T00:36:23.104Z,100893.60
2023-04-18T00:38:56.183Z,100890.60
2023-04-18T00:41:29.294Z,100892.20
2023-04-18T00:44:02.406Z,100893.20
2023-04-18T00:46:35.578Z,100890.00
2023-04-18T00:49:09.427Z,100888.20
2023-04-18T00:51:43.043Z,100889.60
2023-04-18T00:54:18.466Z,100883.20
2023-04-18T00:56:51.963Z,100880.40
2023-04-18T00:59:25.162Z,100882.40
2023-04-18T01:01:58.793Z,100872.20
2023-04-18T01:04:32.765Z,100874.20
2023-04-18T01:07:06.364Z,100871.40
2023-04-18T01:09:39.863Z,100867.00
2023-04-18T01:12:13.026Z,100875.40
2023-04-18T01:14:47.306Z,100871.20
2023-04-18T01:17:20.908Z,100873.40
2023-04-18T01:19:53.985Z,100876.20
2023-04-18T01:22:27.682Z,100879.40
2023-04-18T01:25:00.930Z,100871.40
2023-04-18T01:27:33.983Z,100876.00
2023-04-18T01:30:08.257Z,100874.60
2023-04-18T01:32:41.298Z,100877.00
2023-04-18T01:35:14.870Z,100877.60
2023-04-18T01:37:47.842Z,100876.40
2023-04-18T01:40:21.111Z,100869.60
2023-04-18T01:42:54.739Z,100869.00
2023-04-18T01:45:27.840Z,100874.00
2023-04-18T01:48:01.107Z,100872.40
2023-04-18T01:50:34.341Z,100871.20
2023-04-18T01:53:07.291Z,100865.40
2023-04-18T01:55:40.353Z,100869.40
2023-04-18T01:58:13.651Z,100867.00
2023-04-18T02:00:46.632Z,100867.00
2023-04-18T02:03:22.218Z,100866.80
2023-04-18T02:05:55.507Z,100868.40
2023-04-18T02:08:28.495Z,100864.80
2023-04-18T02:11:02.163Z,100877.40
2023-04-18T02:13:35.451Z,100871.00
2023-04-18T02:16:15.999Z,100866.80
2023-04-18T02:18:52.576Z,100871.40
2023-04-18T02:21:25.571Z,100873.20
2023-04-18T02:23:58.974Z,100868.20
2023-04-18T02:26:31.908Z,100861.60
2023-04-18T02:29:04.932Z,100862.60
2023-04-18T02:31:41.441Z,100866.00
2023-04-18T02:34:14.749Z,100863.80
2023-04-18T02:36:48.142Z,100868.00
2023-04-18T02:39:22.252Z,100867.60
2023-04-18T02:41:55.960Z,100864.60
2023-04-18T02:44:29.609Z,100863.60
2023-04-18T02:47:02.770Z,100860.80
2023-04-18T02:49:35.912Z,100866.00
2023-04-18T02:52:08.944Z,100868.60
2023-04-18T02:54:42.072Z,100871.20
2023-04-18T02:57:19.056Z,100874.80
2023-04-18T03:00:21.825Z,100875.80
2023-04-18T03:03:11.580Z,100882.20
2023-04-18T03:05:47.824Z,100876.00
2023-04-18T03:08:20.893Z,100875.40
2023-04-18T03:10:56.406Z,100874.40
2023-04-18T03:13:30.153Z,100872.40
2023-04-18T03:16:03.868Z,100871.00
2023-04-18T03:18:37.567Z,100876.00
2023-04-18T03:21:11.617Z,100872.00
2023-04-18T03:23:44.869Z,100876.20
2023-04-18T03:26:18.101Z,100867.40
2023-04-18T03:28:51.212Z,100863.20
2023-04-18T03:31:24.553Z,100864.20
2023-04-18T03:33:57.590Z,100871.80
2023-04-18T03:36:31.848Z,100874.40
2023-04-18T03:39:05.501Z,100867.00
2023-04-18T03:41:40.566Z,100870.00
2023-04-18T03:44:14.043Z,100865.00
2023-04-18T03:46:47.757Z,100869.80
2023-04-18T03:49:20.972Z,100867.60
2023-04-18T03:51:54.030Z,100871.20
2023-04-18T03:54:27.098Z,100866.60
2023-04-18T03:57:00.286Z,100873.00
2023-04-18T03:59:33.864Z,100872.20
2023-04-18T04:02:06.981Z,100872.40
2023-04-18T04:04:40.259Z,100867.60
2023-04-18T04:07:13.680Z,100874.40
2023-04-18T04:09:46.713Z,100875.40
2023-04-18T04:12:20.121Z,100872.00
2023-04-18T04:14:53.514Z,100879.40
2023-04-18T04:17:26.824Z,100878.00
2023-04-18T04:20:00.011Z,100880.80
2023-04-18T04:22:34.645Z,100887.60
2023-04-18T04:25:09.265Z,100885.00
2023-04-18T04:27:44.816Z,100888.80
2023-04-18T04:30:18.569Z,100887.00
2023-04-18T04:32:52.335Z,100886.60
2023-04-18T04:35:26.725Z,100888.00
2023-04-18T04:38:01.812Z,100889.00
2023-04-18T04:40:43.850Z,100895.20
2023-04-18T04:43:20.724Z,100899.40
2023-04-18T04:45:54.839Z,100898.40
2023-04-18T04:48:31.737Z,100900.20
2023-04-18T04:51:05.736Z,100906.00
2023-04-18T04:53:39.146Z,100902.40
2023-04-18T04:56:13.150Z,100910.40
2023-04-18T04:58:47.401Z,100903.60
2023-04-18T05:01:35.022Z,100904.20
2023-04-18T05:04:08.555Z,100909.20
2023-04-18T05:06:41.842Z,100914.20
2023-04-18T05:09:15.172Z,100918.00
2023-04-18T05:11:49.518Z,100914.80
2023-04-18T05:14:22.585Z,100918.40
2023-04-18T05:16:56.666Z,100912.60
2023-04-18T05:19:29.718Z,100921.20
2023-04-18T05:22:03.295Z,100918.40
2023-04-18T05:24:36.322Z,100922.00
2023-04-18T05:27:10.111Z,100921.80
2023-04-18T05:29:43.316Z,100920.60
2023-04-18T05:32:16.593Z,100923.20
2023-04-18T05:34:49.606Z,100927.20
2023-04-18T05:37:22.953Z,100928.80
2023-04-18T05:39:56.052Z,100927.40
2023-04-18T05:42:29.384Z,100932.20
2023-04-18T05:45:02.342Z,100930.00
2023-04-18T05:47:35.702Z,100928.00
2023-04-18T05:50:10.776Z,100931.20
2023-04-18T05:52:43.804Z,100928.20
2023-04-18T05:55:16.905Z,100929.80
2023-04-18T05:57:49.888Z,100928.80
2023-04-18T06:00:24.370Z,100930.40
2023-04-18T06:02:57.460Z,100929.00
2023-04-18T06:05:31.249Z,100931.20
2023-04-18T06:08:04.937Z,100930.00
2023-04-18T06:10:39.080Z,100934.40
2023-04-18T06:13:12.516Z,100933.80
2023-04-18T06:15:45.507Z,100935.00
2023-04-18T06:18:19.042Z,100943.20
2023-04-18T06:20:52.265Z,100935.40
2023-04-18T06:23:25.408Z,100936.00
2023-04-18T06:25:58.776Z,100942.60
2023-04-18T06:28:32.204Z,100944.40
2023-04-18T06:31:05.250Z,100950.60
2023-04-18T06:33:39.244Z,100955.40
2023-04-18T06:36:13.325Z,100945.80
2023-04-18T06:38:46.399Z,100951.00
2023-04-18T06:41:19.798Z,100952.60
2023-04-18T06:44:03.343Z,100956.80
2023-04-18T06:46:37.450Z,100953.40
2023-04-18T06:49:11.204Z,100956.40
2023-04-18T06:51:44.190Z,100958.40
2023-04-18T06:54:17.132Z,100962.20
2023-04-18T06:56:50.294Z,100962.20
2023-04-18T06:59:23.605Z,100964.00
2023-04-18T07:01:56.583Z,100967.80
2023-04-18T07:04:29.764Z,100968.80
2023-04-18T07:07:03.984Z,100967.00
2023-04-18T07:09:37.208Z,100971.80
2023-04-18T07:12:10.804Z,100973.60
2023-04-18T07:14:43.789Z,100976.00
2023-04-18T07:17:16.872Z,100981.80
2023-04-18T07:19:49.837Z,100984.20
2023-04-18T07:22:22.975Z,100974.60
2023-04-18T07:24:56.084Z,100978.40
2023-04-18T07:27:29.025Z,100982.40
2023-04-18T07:30:02.079Z,100983.80
2023-04-18T07:32:35.144Z,100983.80
2023-04-18T07:35:10.047Z,100983.00
2023-04-18T07:37:43.287Z,100987.80
2023-04-18T07:40:18.004Z,100985.00
2023-04-18T07:42:51.104Z,100990.00
2023-04-18T07:45:24.598Z,100993.20
2023-04-18T07:47:57.754Z,100983.60
2023-04-18T07:50:30.840Z,100989.00
2023-04-18T07:53:03.831Z,100994.00
2023-04-18T07:55:36.759Z,101002.40
2023-04-18T07:58:09.809Z,100996.60
2023-04-18T08:00:44.979Z,101000.20
2023-04-18T08:03:18.432Z,101005.00
2023-04-18T08:05:52.046Z,101011.40
2023-04-18T08:08:25.203Z,101007.40
2023-04-18T08:10:58.629Z,101010.40
2023-04-18T08:13:32.156Z,101001.40
2023-04-18T08:16:05.728Z,101004.00
2023-04-18T08:18:39.043Z,101006.60
2023-04-18T08:21:12.036Z,101011.40
2023-04-18T08:23:45.043Z,101009.80
2023-04-18T08:26:18.285Z,101009.80
2023-04-18T08:28:51.938Z,101014.20
2023-04-18T08:31:25.039Z,101015.00
2023-04-18T08:33:58.414Z,101018.80
2023-04-18T08:36:31.859Z,101021.80
2023-04-18T08:39:05.092Z,101023.20
2023-04-18T08:41:39.686Z,101020.00
2023-04-18T08:44:13.160Z,101029.40
2023-04-18T08:46:46.534Z,101027.00
2023-04-18T08:49:22.799Z,101031.40
2023-04-18T08:51:57.692Z,101029.80
2023-04-18T08:54:31.557Z,101025.80
2023-04-18T08:57:12.679Z,101028.40
2023-04-18T08:59:48.342Z,101030.60
2023-04-18T09:02:24.204Z,101027.00
2023-04-18T09:04:57.679Z,101033.20
2023-04-18T09:07:33.407Z,101029.80
2023-04-18T09:10:07.533Z,101031.00
2023-04-18T09:12:50.405Z,101024.60
2023-04-18T09:15:29.415Z,101031.00
2023-04-18T09:18:03.831Z,101032.00
2023-04-18T09:20:41.569Z,101032.20
2023-04-18T09:23:24.741Z,101031.20
2023-04-18T09:25:59.219Z,101022.60
2023-04-18T09:28:34.500Z,101027.60
2023-04-18T09:31:15.775Z,101027.40
2023-04-18T09:33:57.036Z,101025.20
2023-04-18T09:36:31.766Z,101022.80
2023-04-18T09:39:05.487Z,101024.80
2023-04-18T09:41:38.638Z,101029.80
2023-04-18T09:44:15.851Z,101027.60
2023-04-18T09:46:49.628Z,101030.60
2023-04-18T09:49:22.734Z,101030.00
2023-04-18T09:51:57.298Z,101026.00
2023-04-18T09:54:34.458Z,101029.60
2023-04-18T09:57:13.134Z,101030.60
2023-04-18T09:59:52.902Z,101029.80
2023-04-18T10:02:29.472Z,101027.80
2023-04-18T10:05:04.465Z,101023.60
2023-04-18T10:07:38.228Z,101019.80
2023-04-18T10:10:12.776Z,101022.20
2023-04-18T10:12:48.808Z,101026.80
2023-04-18T10:15:25.068Z,101027.40
2023-04-18T10:18:05.023Z,101029.20
2023-04-18T10:20:41.758Z,101028.80
2023-04-18T10:23:41.804Z,101023.80
2023-04-18T10:26:14.921Z,101018.00
2023-04-18T10:28:59.048Z,101013.40
2023-04-18T10:31:40.321Z,101010.00
2023-04-18T10:34:18.409Z,101013.20
2023-04-18T10:37:09.094Z,101016.00
2023-04-18T10:40:06.109Z,101011.80
2023-04-18T10:43:02.499Z,101015.00
2023-04-18T10:45:36.919Z,101014.40
2023-04-18T10:48:31.433Z,101012.20
2023-04-18T10:51:26.898Z,101009.60
2023-04-18T10:54:02.695Z,101012.00
2023-04-18T10:56:35.855Z,101012.60
2023-04-18T10:59:10.951Z,101009.40
2023-04-18T11:01:47.895Z,101006.80
2023-04-18T11:04:21.331Z,101008.40
2023-04-18T11:06:57.681Z,101010.20
2023-04-18T11:09:30.981Z,101004.00
2023-04-18T11:12:13.226Z,101009.20
2023-04-18T11:14:47.995Z,101012.20
2023-04-18T11:17:26.302Z,101015.20
2023-04-18T11:20:09.377Z,101009.00
2023-04-18T11:22:51.944Z,101008.40
2023-04-18T11:25:28.852Z,101001.80
2023-04-18T11:28:04.713Z,100995.60
2023-04-18T11:30:43.991Z,100988.40
2023-04-18T11:33:18.253Z,101003.40
2023-04-18T11:35:51.383Z,101011.60
2023-04-18T11:38:31.460Z,101007.20
2023-04-18T11:41:06.591Z,100999.40
2023-04-18T11:43:43.308Z,100995.00
2023-04-18T11:46:16.761Z,100991.00
2023-04-18T11:48:50.697Z,100992.40
2023-04-18T11:51:40.466Z,100990.20
2023-04-18T11:54:46.271Z,100994.40
2023-04-18T11:57:28.326Z,100996.60
2023-04-18T12:00:03.007Z,100999.20
2023-04-18T12:02:47.419Z,101002.20
2023-04-18T12:05:31.749Z,100999.60
2023-04-18T12:08:13.387Z,100994.40
2023-04-18T12:10:53.889Z,100995.00
2023-04-18T12:13:36.131Z,101000.00
2023-04-18T12:16:10.131Z,100995.00
2023-04-18T12:18:43.518Z,100992.40
2023-04-18T12:21:17.307Z,100995.60
2023-04-18T12:23:50.647Z,100988.40
2023-04-18T12:26:24.034Z,100994.00
2023-04-18T12:28:58.526Z,100985.80
2023-04-18T12:31:31.928Z,100993.40
2023-04-18T12:34:07.058Z,100991.00
2023-04-18T12:36:40.812Z,100983.20
2023-04-18T12:39:13.876Z,100989.80
2023-04-18T12:41:49.023Z,100988.40
2023-04-18T12:44:24.774Z,100984.60
2023-04-18T12:46:57.823Z,100989.60
2023-04-18T12:49:30.942Z,100983.80
2023-04-18T12:52:03.913Z,100985.40
2023-04-18T12:54:37.990Z,100974.60
2023-04-18T12:57:11.210Z,100977.40
2023-04-18T12:59:44.133Z,100978.20
2023-04-18T13:02:17.358Z,100974.00
2023-04-18T13:04:51.520Z,100975.00
2023-04-18T13:07:24.529Z,100967.20
2023-04-18T13:09:57.531Z,100976.60
2023-04-18T13:12:31.042Z,100971.60
2023-04-18T13:15:04.544Z,100973.60
2023-04-18T13:17:38.131Z,100964.20
2023-04-18T13:20:13.856Z,100960.40
2023-04-18T13:22:48.550Z,100964.80
2023-04-18T13:25:21.874Z,100959.40
2023-04-18T13:27:55.453Z,100966.00
2023-04-18T13:30:28.991Z,100967.00
2023-04-18T13:33:02.116Z,100970.20
2023-04-18T13:35:35.489Z,100970.20
2023-04-18T13:38:08.487Z,100971.00
2023-04-18T13:40:41.632Z,100971.20
2023-04-18T13:43:15.680Z,100973.20
2023-04-18T13:45:48.835Z,100974.20
2023-04-18T13:48:21.888Z,100976.00
2023-04-18T13:50:54.961Z,100978.00
2023-04-18T13:53:30.239Z,100982.00
2023-04-18T13:56:04.035Z,100974.00
2023-04-18T13:58:37.259Z,100975.80
2023-04-18T14:01:10.407Z,100967.80
2023-04-18T14:03:43.996Z,100972.80
2023-04-18T14:06:17.186Z,100968.20
2023-04-18T14:08:52.494Z,100973.00
2023-04-18T14:11:26.607Z,100979.00
2023-04-18T14:14:00.040Z,100981.80
2023-04-18T14:16:33.831Z,100977.60
2023-04-18T14:19:07.239Z,100973.60
2023-04-18T14:21:40.359Z,100972.00
2023-04-18T14:24:14.103Z,100975.20
2023-04-18T14:26:47.230Z,100976.20
2023-04-18T14:29:20.455Z,100973.60
2023-04-18T14:31:54.057Z,100970.40
2023-04-18T14:34:27.264Z,100965.80
2023-04-18T14:37:00.571Z,100961.00
2023-04-18T14:39:33.675Z,100968.60
2023-04-18T14:42:07.101Z,100969.00
2023-04-18T14:44:40.388Z,100966.20
2023-04-18T14:47:13.451Z,100965.60
2023-04-18T14:49:46.491Z,100961.00
2023-04-18T14:52:19.644Z,100959.00
2023-04-18T14:54:52.702Z,100963.60
2023-04-18T14:57:26.603Z,100961.60
2023-04-18T14:59:59.770Z,100963.40
2023-04-18T15:02:33.069Z,100957.80
2023-04-18T15:05:07.475Z,100956.60
2023-04-18T15:07:43.038Z,100962.60
2023-04-18T15:10:18.263Z,100961.00
2023-04-18T15:12:52.568Z,100959.20
2023-04-18T15:15:26.131Z,100955.80
2023-04-18T15:18:00.383Z,100963.20
2023-04-18T15:20:34.591Z,100972.80
2023-04-18T15:23:07.682Z,100966.40
2023-04-18T15:25:40.684Z,100969.20
2023-04-18T15:28:14.723Z,100970.60
2023-04-18T15:30:47.826Z,100971.40
2023-04-18T15:33:21.329Z,100970.60
2023-04-18T15:35:56.302Z,100968.60
2023-04-18T15:38:30.516Z,100969.00
2023-04-18T15:41:05.540Z,100972.40
2023-04-18T15:43:41.019Z,100971.60
2023-04-18T15:46:14.298Z,100970.20
2023-04-18T15:48:47.437Z,100973.80
2023-04-18T15:51:20.616Z,100975.80
2023-04-18T15:53:54.475Z,100973.60
2023-04-18T15:56:32.512Z,100968.60
2023-04-18T15:59:07.448Z,100968.80
2023-04-18T16:01:42.026Z,100968.40
2023-04-18T16:04:16.749Z,100966.20
2023-04-18T16:06:49.950Z,100975.80
2023-04-18T16:09:23.219Z,100973.40
2023-04-18T16:11:56.464Z,100973.60
2023-04-18T16:14:29.570Z,100970.80
2023-04-18T16:17:03.938Z,100975.20
2023-04-18T16:19:39.120Z,100970.40
2023-04-18T16:22:12.612Z,100977.40
2023-04-18T16:24:45.678Z,100975.80
2023-04-18T16:27:18.740Z,100974.60
2023-04-18T16:29:53.889Z,100973.00
2023-04-18T16:32:27.038Z,100966.20
2023-04-18T16:35:00.243Z,100967.80
2023-04-18T16:37:33.493Z,100960.80
2023-04-18T16:40:10.080Z,100964.60
2023-04-18T16:42:43.209Z,100964.40
2023-04-18T16:45:17.524Z,100968.00
2023-04-18T16:47:50.878Z,100970.40
2023-04-18T16:50:24.958Z,100969.40
2023-04-18T16:52:58.028Z,100964.60
2023-04-18T16:55:31.256Z,100965.40
2023-04-18T16:58:04.243Z,100969.00
2023-04-18T17:00:38.655Z,100964.80
2023-04-18T17:03:12.282Z,100973.00
2023-04-18T17:05:45.775Z,100965.60
2023-04-18T17:08:19.739Z,100965.20
2023-04-18T17:10:56.105Z,100967.00
2023-04-18T17:13:30.866Z,100970.00
2023-04-18T17:16:03.948Z,100967.00
2023-04-18T17:18:37.100Z,100968.80
2023-04-18T17:21:12.723Z,100973.60
2023-04-18T17:23:45.961Z,100977.20
2023-04-18T17:26:19.244Z,100976.80
2023-04-18T17:28:53.157Z,100978.60
2023-04-18T17:31:26.436Z,100979.80
2023-04-18T17:33:59.833Z,100977.00
2023-04-18T17:36:33.133Z,100982.80
2023-04-18T17:39:06.978Z,100983.80
2023-04-18T17:41:41.878Z,100981.80
2023-04-18T17:44:18.489Z,100981.00
2023-04-18T17:46:51.807Z,100983.40
2023-04-18T17:49:30.909Z,100980.60
2023-04-18T17:52:04.038Z,100982.20
2023-04-18T17:54:37.163Z,100981.00
2023-04-18T17:57:10.386Z,100981.60
2023-04-18T17:59:43.909Z,100979.40
2023-04-18T18:02:17.631Z,100983.40
2023-04-18T18:04:51.743Z,100980.40
2023-04-18T18:07:24.922Z,100981.20
2023-04-18T18:09:58.610Z,100981.20
2023-04-18T18:12:32.506Z,100984.00
2023-04-18T18:15:06.487Z,100984.20
2023-04-18T18:17:39.677Z,100987.60
2023-04-18T18:20:15.136Z,100987.40
2023-04-18T18:22:48.565Z,100984.80
2023-04-18T18:25:22.156Z,100985.20
2023-04-18T18:27:55.312Z,100985.00
2023-04-18T18:30:28.694Z,100984.40
2023-04-18T18:33:03.620Z,100980.80
2023-04-18T18:35:36.825Z,100982.80
2023-04-18T18:38:10.352Z,100985.20
2023-04-18T18:40:43.604Z,100982.80
2023-04-18T18:43:17.011Z,100983.80
2023-04-18T18:45:50.372Z,100987.00
2023-04-18T18:48:23.450Z,100983.60
2023-04-18T18:50:58.456Z,100980.80
2023-04-18T18:53:31.817Z,100981.20
2023-04-18T18:56:05.451Z,100978.20
2023-04-18T18:58:39.386Z,100978.40
2023-04-18T19:01:12.899Z,100974.00
2023-04-18T19:03:46.370Z,100975.60
2023-04-18T19:06:19.647Z,100974.40
2023-04-18T19:08:52.727Z,100970.40
2023-04-18T19:11:26.960Z,100970.60
2023-04-18T19:13:59.993Z,100969.40
2023-04-18T19:16:36.685Z,100967.80
2023-04-18T19:19:10.403Z,100970.20
2023-04-18T19:21:46.110Z,100973.40
2023-04-18T19:24:19.627Z,100970.40
2023-04-18T19:26:52.809Z,100970.20
2023-04-18T19:29:26.876Z,100970.60
2023-04-18T19:32:00.061Z,100966.20
2023-04-18T19:34:33.111Z,100968.80
2023-04-18T19:37:06.209Z,100964.60
2023-04-18T19:39:39.334Z,100960.00
2023-04-18T19:42:12.427Z,100962.80
2023-04-18T19:44:45.758Z,100961.20
2023-04-18T19:47:18.870Z,100960.40
2023-04-18T19:49:51.903Z,100954.00
2023-04-18T19:52:25.137Z,100957.80
2023-04-18T19:54:58.321Z,100952.40
2023-04-18T19:57:31.963Z,100952.80
2023-04-18T20:00:05.445Z,100952.40
2023-04-18T20:02:45.937Z,100950.80
2023-04-18T20:05:19.787Z,100946.40
2023-04-18T20:07:55.275Z,100946.80
2023-04-18T20:10:28.761Z,100946.00
2023-04-18T20:13:03.220Z,100942.80
2023-04-18T20:15:36.817Z,100940.00
2023-04-18T20:18:10.971Z,100937.80
2023-04-18T20:20:44.483Z,100936.40
2023-04-18T20:23:17.973Z,100941.20
2023-04-18T20:25:51.169Z,100941.40
2023-04-18T20:28:24.353Z,100936.20
2023-04-18T20:30:57.631Z,100929.40
2023-04-18T20:33:33.535Z,100938.20
2023-04-18T20:36:08.481Z,100934.80
2023-04-18T20:38:41.640Z,100932.60
2023-04-18T20:41:18.354Z,100927.60
2023-04-18T20:43:53.991Z,100929.40
2023-04-18T20:46:27.493Z,100926.00
2023-04-18T20:49:00.684Z,100930.60
2023-04-18T20:51:34.680Z,100927.80
2023-04-18T20:54:08.002Z,100929.00
2023-04-18T20:56:41.985Z,100926.20
2023-04-18T20:59:18.016Z,100925.40
2023-04-18T21:01:50.993Z,100923.20
2023-04-18T21:04:24.663Z,100915.40
2023-04-18T21:06:58.090Z,100917.20
2023-04-18T21:09:36.598Z,100917.20
2023-04-18T21:12:10.033Z,100920.20
2023-04-18T21:14:43.076Z,100911.00
2023-04-18T21:17:17.611Z,100915.00
2023-04-18T21:19:51.298Z,100912.00
2023-04-18T21:22:24.358Z,100911.20
2023-04-18T21:24:57.342Z,100912.20
2023-04-18T21:27:30.356Z,100904.00
2023-04-18T21:30:04.946Z,100899.60
2023-04-18T21:32:38.321Z,100901.60
2023-04-18T21:35:12.876Z,100898.00
2023-04-18T21:37:45.873Z,100893.40
2023-04-18T21:40:19.577Z,100892.20
2023-04-18T21:42:52.633Z,100891.80
2023-04-18T21:45:26.271Z,100898.60
2023-04-18T21:47:59.276Z,100891.00
2023-04-18T21:50:32.285Z,100888.00
2023-04-18T21:53:05.318Z,100886.60
2023-04-18T21:55:38.298Z,100886.20
2023-04-18T21:58:11.235Z,100890.00
2023-04-18T22:00:44.256Z,100888.40
2023-04-18T22:03:17.768Z,100884.60
2023-04-18T22:05:52.607Z,100881.00
2023-04-18T22:08:26.921Z,100872.20
2023-04-18T22:11:01.086Z,100878.80
2023-04-18T22:13:34.633Z,100873.40
2023-04-18T22:16:10.261Z,100870.60
2023-04-18T22:18:43.223Z,100862.20
2023-04-18T22:21:16.383Z,100862.20
2023-04-18T22:23:49.468Z,100857.20
2023-04-18T22:26:22.617Z,100859.80
2023-04-18T22:28:55.682Z,100857.20
2023-04-18T22:31:29.060Z,100855.80
2023-04-18T22:34:02.278Z,100853.00
2023-04-18T22:36:35.530Z,100850.60
2023-04-18T22:39:08.601Z,100851.80
2023-04-18T22:41:43.083Z,100845.60
2023-04-18T22:44:16.261Z,100848.60
2023-04-18T22:46:49.720Z,100844.20
2023-04-18T22:49:23.465Z,100836.40
2023-04-18T22:51:56.526Z,100835.20
2023-04-18T22:54:29.508Z,100829.80
2023-04-18T22:57:02.958Z,100826.80
2023-04-18T22:59:36.382Z,100828.40
2023-04-18T23:02:09.482Z,100823.60
2023-04-18T23:04:45.685Z,100824.80
2023-04-18T23:07:18.789Z,100825.20
2023-04-18T23:09:51.726Z,100819.80
2023-04-18T23:12:24.828Z,100820.20
2023-04-18T23:14:57.873Z,100817.80
2023-04-18T23:17:30.916Z,100811.20
2023-04-18T23:20:04.829Z,100804.80
2023-04-18T23:22:38.531Z,100801.00
2023-04-18T23:25:12.496Z,100801.80
2023-04-18T23:27:46.023Z,100799.80
2023-04-18T23:30:19.635Z,100798.60
2023-04-18T23:32:52.730Z,100795.40
2023-04-18T23:35:25.768Z,100795.00
2023-04-18T23:37:58.788Z,100788.00
2023-04-18T23:40:31.885Z,100784.20
2023-04-18T23:43:05.085Z,100783.80
2023-04-18T23:45:38.062Z,100781.60
2023-04-18T23:48:11.033Z,100777.80
2023-04-18T23:50:49.639Z,100779.00
2023-04-18T23:53:23.423Z,100777.60
2023-04-18T23:55:56.421Z,100771.40
2023-04-18T23:58:31.814Z,100768.00
